sensor_id;sensor_type;location;lat;lon;timestamp;P1;durP1;ratioP1;P2;durP2;ratioP2
5878;SDS011;2965;42.640;23.370;2022-08-01T06:35:40;7.00;;;3.70;;
5878;SDS011;2965;42.640;23.370;2022-08-01T06:38:06;3.33;;;3.23;;
5878;SDS011;2965;42.640;23.370;2022-08-01T06:40:32;3.90;;;3.80;;
5878;SDS011;2965;42.640;23.370;2022-08-01T06:42:58;4.60;;;4.20;;
5878;SDS011;2965;42.640;23.370;2022-08-01T06:45:23;3.83;;;3.63;;
5878;SDS011;2965;42.640;23.370;2022-08-01T06:47:51;4.37;;;4.27;;
5878;SDS011;2965;42.640;23.370;2022-08-01T06:50:18;3.93;;;3.50;;
5878;SDS011;2965;42.640;23.370;2022-08-01T06:52:43;3.43;;;3.23;;
5878;SDS011;2965;42.640;23.370;2022-08-01T06:55:10;3.80;;;3.70;;
5878;SDS011;2965;42.640;23.370;2022-08-01T06:57:36;5.93;;;5.40;;
5878;SDS011;2965;42.640;23.370;2022-08-01T07:00:10;4.10;;;3.80;;
5878;SDS011;2965;42.640;23.370;2022-08-01T07:02:38;5.10;;;3.63;;
5878;SDS011;2965;42.640;23.370;2022-08-01T07:05:06;4.40;;;4.20;;
5878;SDS011;2965;42.640;23.370;2022-08-01T07:07:31;3.83;;;3.53;;
5878;SDS011;2965;42.640;23.370;2022-08-01T07:09:57;4.23;;;3.83;;
5878;SDS011;2965;42.640;23.370;2022-08-01T07:12:23;3.37;;;3.27;;
5878;SDS011;2965;42.640;23.370;2022-08-01T07:14:48;4.80;;;4.03;;
5878;SDS011;2965;42.640;23.370;2022-08-01T07:17:14;3.87;;;3.67;;
5878;SDS011;2965;42.640;23.370;2022-08-01T07:19:39;3.93;;;3.83;;
5878;SDS011;2965;42.640;23.370;2022-08-01T07:22:05;11.67;;;4.20;;
5878;SDS011;2965;42.640;23.370;2022-08-01T07:24:31;4.90;;;4.50;;
5878;SDS011;2965;42.640;23.370;2022-08-01T07:26:57;3.97;;;3.53;;
5878;SDS011;2965;42.640;23.370;2022-08-01T07:29:27;4.20;;;3.90;;
5878;SDS011;2965;42.640;23.370;2022-08-01T07:31:55;4.50;;;4.20;;
5878;SDS011;2965;42.640;23.370;2022-08-01T07:34:27;4.80;;;4.50;;
5878;SDS011;2965;42.640;23.370;2022-08-01T07:36:53;4.37;;;4.10;;
5878;SDS011;2965;42.640;23.370;2022-08-01T07:39:20;4.30;;;4.20;;
5878;SDS011;2965;42.640;23.370;2022-08-01T07:41:45;3.87;;;3.67;;
5878;SDS011;2965;42.640;23.370;2022-08-01T07:44:11;8.17;;;5.37;;
5878;SDS011;2965;42.640;23.370;2022-08-01T07:46:36;4.33;;;4.03;;
5878;SDS011;2965;42.640;23.370;2022-08-01T07:49:02;3.30;;;3.20;;
5878;SDS011;2965;42.640;23.370;2022-08-01T07:51:29;4.20;;;3.90;;
5878;SDS011;2965;42.640;23.370;2022-08-01T07:53:54;4.93;;;4.60;;
5878;SDS011;2965;42.640;23.370;2022-08-01T07:56:20;4.30;;;4.07;;
5878;SDS011;2965;42.640;23.370;2022-08-01T07:58:49;4.00;;;3.90;;
5878;SDS011;2965;42.640;23.370;2022-08-01T08:01:15;3.93;;;3.83;;
5878;SDS011;2965;42.640;23.370;2022-08-01T08:03:40;21.13;;;4.50;;
5878;SDS011;2965;42.640;23.370;2022-08-01T08:06:06;4.70;;;4.50;;
5878;SDS011;2965;42.640;23.370;2022-08-01T08:08:34;5.97;;;4.83;;
5878;SDS011;2965;42.640;23.370;2022-08-01T08:11:00;5.03;;;4.63;;
5878;SDS011;2965;42.640;23.370;2022-08-01T08:13:26;10.30;;;3.97;;
5878;SDS011;2965;42.640;23.370;2022-08-01T08:15:52;4.87;;;4.63;;
5878;SDS011;2965;42.640;23.370;2022-08-01T08:18:21;5.10;;;4.67;;
5878;SDS011;2965;42.640;23.370;2022-08-01T08:20:50;4.97;;;4.77;;
5878;SDS011;2965;42.640;23.370;2022-08-01T08:23:15;10.40;;;5.30;;
5878;SDS011;2965;42.640;23.370;2022-08-01T08:25:59;4.77;;;4.30;;
5878;SDS011;2965;42.640;23.370;2022-08-01T08:28:25;4.80;;;4.50;;
5878;SDS011;2965;42.640;23.370;2022-08-01T08:30:50;5.27;;;4.90;;
5878;SDS011;2965;42.640;23.370;2022-08-01T08:33:18;4.67;;;4.37;;
5878;SDS011;2965;42.640;23.370;2022-08-01T08:35:43;4.47;;;4.27;;
5878;SDS011;2965;42.640;23.370;2022-08-01T08:38:09;4.33;;;4.00;;
5878;SDS011;2965;42.640;23.370;2022-08-01T08:40:35;4.50;;;4.13;;
5878;SDS011;2965;42.640;23.370;2022-08-01T08:43:01;4.67;;;4.47;;
5878;SDS011;2965;42.640;23.370;2022-08-01T08:45:31;4.03;;;3.93;;
5878;SDS011;2965;42.640;23.370;2022-08-01T08:48:00;4.50;;;3.70;;
5878;SDS011;2965;42.640;23.370;2022-08-01T08:50:30;4.50;;;4.20;;
5878;SDS011;2965;42.640;23.370;2022-08-01T08:52:56;3.93;;;3.83;;
5878;SDS011;2965;42.640;23.370;2022-08-01T08:55:26;4.73;;;4.33;;
5878;SDS011;2965;42.640;23.370;2022-08-01T08:57:53;3.80;;;3.70;;
5878;SDS011;2965;42.640;23.370;2022-08-01T09:00:20;6.60;;;4.23;;
5878;SDS011;2965;42.640;23.370;2022-08-01T09:02:51;4.80;;;4.40;;
5878;SDS011;2965;42.640;23.370;2022-08-01T09:05:21;3.90;;;3.80;;
5878;SDS011;2965;42.640;23.370;2022-08-01T09:07:53;5.33;;;4.73;;
5878;SDS011;2965;42.640;23.370;2022-08-01T09:10:23;3.77;;;3.63;;
5878;SDS011;2965;42.640;23.370;2022-08-01T09:15:44;4.00;;;3.90;;
5878;SDS011;2965;42.640;23.370;2022-08-01T09:18:28;3.77;;;3.47;;
5878;SDS011;2965;42.640;23.370;2022-08-01T09:23:36;7.80;;;3.80;;
5878;SDS011;2965;42.640;23.370;2022-08-01T09:26:07;3.87;;;3.57;;
5878;SDS011;2965;42.640;23.370;2022-08-01T09:28:43;4.23;;;4.00;;
5878;SDS011;2965;42.640;23.370;2022-08-01T09:31:11;3.70;;;3.50;;
5878;SDS011;2965;42.640;23.370;2022-08-01T09:33:47;4.00;;;3.70;;
5878;SDS011;2965;42.640;23.370;2022-08-01T09:37:09;3.40;;;3.30;;
5878;SDS011;2965;42.640;23.370;2022-08-01T09:39:37;3.37;;;3.27;;
5878;SDS011;2965;42.640;23.370;2022-08-01T09:42:25;3.93;;;3.60;;
5878;SDS011;2965;42.640;23.370;2022-08-01T09:44:52;3.13;;;3.03;;
5878;SDS011;2965;42.640;23.370;2022-08-01T09:47:19;4.50;;;4.17;;
5878;SDS011;2965;42.640;23.370;2022-08-01T09:49:54;4.07;;;3.87;;
5878;SDS011;2965;42.640;23.370;2022-08-01T09:52:24;4.00;;;3.80;;
5878;SDS011;2965;42.640;23.370;2022-08-01T09:54:52;3.93;;;3.73;;
5878;SDS011;2965;42.640;23.370;2022-08-01T09:57:25;4.37;;;4.03;;
5878;SDS011;2965;42.640;23.370;2022-08-01T09:59:53;4.10;;;4.00;;
5878;SDS011;2965;42.640;23.370;2022-08-01T10:02:27;4.20;;;4.00;;
5878;SDS011;2965;42.640;23.370;2022-08-01T10:04:54;5.23;;;4.07;;
5878;SDS011;2965;42.640;23.370;2022-08-01T10:07:20;4.53;;;4.20;;
5878;SDS011;2965;42.640;23.370;2022-08-01T10:09:47;4.40;;;4.10;;
5878;SDS011;2965;42.640;23.370;2022-08-01T10:12:15;4.40;;;4.20;;
5878;SDS011;2965;42.640;23.370;2022-08-01T10:14:44;4.77;;;4.23;;
5878;SDS011;2965;42.640;23.370;2022-08-01T10:17:15;4.30;;;4.20;;
5878;SDS011;2965;42.640;23.370;2022-08-01T10:19:42;4.20;;;4.10;;
5878;SDS011;2965;42.640;23.370;2022-08-01T10:22:10;4.97;;;4.77;;
5878;SDS011;2965;42.640;23.370;2022-08-01T10:24:43;4.90;;;4.67;;
5878;SDS011;2965;42.640;23.370;2022-08-01T10:27:15;5.20;;;4.20;;
5878;SDS011;2965;42.640;23.370;2022-08-01T10:30:02;4.47;;;4.37;;
5878;SDS011;2965;42.640;23.370;2022-08-01T10:32:30;4.50;;;4.30;;
5878;SDS011;2965;42.640;23.370;2022-08-01T10:34:58;4.20;;;4.10;;
5878;SDS011;2965;42.640;23.370;2022-08-01T10:37:24;4.10;;;4.00;;
5878;SDS011;2965;42.640;23.370;2022-08-01T10:39:53;4.20;;;4.10;;
5878;SDS011;2965;42.640;23.370;2022-08-01T10:42:20;4.03;;;3.83;;
5878;SDS011;2965;42.640;23.370;2022-08-01T10:44:46;5.23;;;4.30;;
5878;SDS011;2965;42.640;23.370;2022-08-01T10:47:14;4.37;;;4.20;;
5878;SDS011;2965;42.640;23.370;2022-08-01T10:49:47;3.87;;;3.77;;
5878;SDS011;2965;42.640;23.370;2022-08-01T10:52:19;5.33;;;3.73;;
5878;SDS011;2965;42.640;23.370;2022-08-01T10:54:45;4.20;;;4.10;;
5878;SDS011;2965;42.640;23.370;2022-08-01T10:57:11;3.67;;;3.50;;
5878;SDS011;2965;42.640;23.370;2022-08-01T10:59:50;3.90;;;3.80;;
5878;SDS011;2965;42.640;23.370;2022-08-01T11:02:27;3.83;;;3.63;;
5878;SDS011;2965;42.640;23.370;2022-08-01T11:04:56;4.30;;;4.10;;
5878;SDS011;2965;42.640;23.370;2022-08-01T11:07:46;6.87;;;3.80;;
5878;SDS011;2965;42.640;23.370;2022-08-01T11:10:24;3.67;;;3.37;;
5878;SDS011;2965;42.640;23.370;2022-08-01T11:12:55;3.87;;;3.67;;
5878;SDS011;2965;42.640;23.370;2022-08-01T11:15:21;3.27;;;3.17;;
5878;SDS011;2965;42.640;23.370;2022-08-01T11:17:52;3.80;;;3.60;;
5878;SDS011;2965;42.640;23.370;2022-08-01T11:20:26;3.87;;;3.57;;
5878;SDS011;2965;42.640;23.370;2022-08-01T11:25:27;20.23;;;3.90;;
5878;SDS011;2965;42.640;23.370;2022-08-01T11:28:18;3.70;;;3.60;;
5878;SDS011;2965;42.640;23.370;2022-08-01T11:30:48;3.90;;;3.60;;
5878;SDS011;2965;42.640;23.370;2022-08-01T11:33:16;5.33;;;3.17;;
5878;SDS011;2965;42.640;23.370;2022-08-01T11:44:02;4.03;;;3.90;;
5878;SDS011;2965;42.640;23.370;2022-08-01T11:54:28;4.50;;;3.90;;
5878;SDS011;2965;42.640;23.370;2022-08-01T11:56:58;3.43;;;3.33;;
5878;SDS011;2965;42.640;23.370;2022-08-01T11:59:25;3.77;;;3.67;;
5878;SDS011;2965;42.640;23.370;2022-08-01T12:01:52;3.43;;;3.23;;
5878;SDS011;2965;42.640;23.370;2022-08-01T12:04:18;3.70;;;3.60;;
5878;SDS011;2965;42.640;23.370;2022-08-01T12:06:44;4.60;;;4.00;;
5878;SDS011;2965;42.640;23.370;2022-08-01T12:09:15;3.90;;;3.80;;
5878;SDS011;2965;42.640;23.370;2022-08-01T12:11:48;7.40;;;4.27;;
5878;SDS011;2965;42.640;23.370;2022-08-01T12:14:20;4.37;;;4.27;;
5878;SDS011;2965;42.640;23.370;2022-08-01T12:16:51;3.57;;;3.47;;
5878;SDS011;2965;42.640;23.370;2022-08-01T12:19:19;3.97;;;3.87;;
5878;SDS011;2965;42.640;23.370;2022-08-01T12:22:10;4.33;;;4.17;;
5878;SDS011;2965;42.640;23.370;2022-08-01T12:24:38;4.53;;;4.33;;
5878;SDS011;2965;42.640;23.370;2022-08-01T12:27:09;3.77;;;3.57;;
5878;SDS011;2965;42.640;23.370;2022-08-01T12:29:36;3.93;;;3.70;;
5878;SDS011;2965;42.640;23.370;2022-08-01T12:32:20;4.90;;;4.70;;
5878;SDS011;2965;42.640;23.370;2022-08-01T12:34:47;4.77;;;4.50;;
5878;SDS011;2965;42.640;23.370;2022-08-01T12:37:16;4.27;;;4.17;;
5878;SDS011;2965;42.640;23.370;2022-08-01T12:39:43;4.13;;;4.03;;
5878;SDS011;2965;42.640;23.370;2022-08-01T12:42:09;4.43;;;4.33;;
5878;SDS011;2965;42.640;23.370;2022-08-01T12:44:36;4.87;;;4.47;;
5878;SDS011;2965;42.640;23.370;2022-08-01T12:47:06;4.03;;;3.83;;
5878;SDS011;2965;42.640;23.370;2022-08-01T12:49:48;4.10;;;4.00;;
5878;SDS011;2965;42.640;23.370;2022-08-01T12:52:16;5.20;;;5.00;;
5878;SDS011;2965;42.640;23.370;2022-08-01T12:55:02;4.57;;;4.37;;
5878;SDS011;2965;42.640;23.370;2022-08-01T12:57:33;4.30;;;4.20;;
5878;SDS011;2965;42.640;23.370;2022-08-01T13:00:18;4.70;;;4.50;;
5878;SDS011;2965;42.640;23.370;2022-08-01T13:03:05;4.00;;;3.90;;
5878;SDS011;2965;42.640;23.370;2022-08-01T13:08:15;4.23;;;4.13;;
5878;SDS011;2965;42.640;23.370;2022-08-01T13:10:42;3.90;;;3.80;;
5878;SDS011;2965;42.640;23.370;2022-08-01T13:13:09;4.00;;;3.90;;
5878;SDS011;2965;42.640;23.370;2022-08-01T13:15:39;4.17;;;4.07;;
5878;SDS011;2965;42.640;23.370;2022-08-01T13:18:21;4.27;;;4.13;;
5878;SDS011;2965;42.640;23.370;2022-08-01T13:20:49;4.10;;;4.00;;
5878;SDS011;2965;42.640;23.370;2022-08-01T13:23:16;3.50;;;3.40;;
5878;SDS011;2965;42.640;23.370;2022-08-01T13:25:53;4.40;;;4.30;;
5878;SDS011;2965;42.640;23.370;2022-08-01T13:30:55;4.57;;;4.27;;
5878;SDS011;2965;42.640;23.370;2022-08-01T13:33:39;3.77;;;3.67;;
5878;SDS011;2965;42.640;23.370;2022-08-01T13:36:11;4.07;;;3.97;;
5878;SDS011;2965;42.640;23.370;2022-08-01T13:38:37;4.30;;;4.17;;
5878;SDS011;2965;42.640;23.370;2022-08-01T13:41:22;4.37;;;4.10;;
5878;SDS011;2965;42.640;23.370;2022-08-01T13:43:48;4.40;;;4.20;;
5878;SDS011;2965;42.640;23.370;2022-08-01T13:46:13;4.13;;;4.03;;
5878;SDS011;2965;42.640;23.370;2022-08-01T13:48:39;3.80;;;3.70;;
5878;SDS011;2965;42.640;23.370;2022-08-01T13:51:09;4.30;;;4.20;;
5878;SDS011;2965;42.640;23.370;2022-08-01T13:53:35;3.83;;;3.73;;
5878;SDS011;2965;42.640;23.370;2022-08-01T13:56:01;4.03;;;3.83;;
5878;SDS011;2965;42.640;23.370;2022-08-01T13:58:26;4.53;;;4.20;;
5878;SDS011;2965;42.640;23.370;2022-08-01T14:00:53;4.40;;;4.20;;
5878;SDS011;2965;42.640;23.370;2022-08-01T14:03:20;4.07;;;3.97;;
5878;SDS011;2965;42.640;23.370;2022-08-01T14:05:46;4.03;;;3.93;;
5878;SDS011;2965;42.640;23.370;2022-08-01T14:08:18;4.00;;;3.70;;
5878;SDS011;2965;42.640;23.370;2022-08-01T14:10:44;4.03;;;3.93;;
5878;SDS011;2965;42.640;23.370;2022-08-01T14:13:10;3.90;;;3.60;;
5878;SDS011;2965;42.640;23.370;2022-08-01T14:15:36;4.27;;;4.17;;
5878;SDS011;2965;42.640;23.370;2022-08-01T14:18:02;3.87;;;3.77;;
5878;SDS011;2965;42.640;23.370;2022-08-01T14:20:28;10.87;;;4.33;;
5878;SDS011;2965;42.640;23.370;2022-08-01T14:22:54;3.97;;;3.87;;
5878;SDS011;2965;42.640;23.370;2022-08-01T14:25:21;3.90;;;3.53;;
5878;SDS011;2965;42.640;23.370;2022-08-01T14:27:47;4.17;;;3.67;;
5878;SDS011;2965;42.640;23.370;2022-08-01T14:30:13;3.60;;;3.50;;
5878;SDS011;2965;42.640;23.370;2022-08-01T14:32:38;4.60;;;4.40;;
5878;SDS011;2965;42.640;23.370;2022-08-01T14:35:05;3.70;;;3.50;;
5878;SDS011;2965;42.640;23.370;2022-08-01T14:37:31;4.03;;;3.93;;
5878;SDS011;2965;42.640;23.370;2022-08-01T14:40:01;3.63;;;3.53;;
5878;SDS011;2965;42.640;23.370;2022-08-01T14:42:32;3.77;;;3.50;;
5878;SDS011;2965;42.640;23.370;2022-08-01T14:44:58;3.53;;;3.43;;
5878;SDS011;2965;42.640;23.370;2022-08-01T14:47:24;3.80;;;3.60;;
5878;SDS011;2965;42.640;23.370;2022-08-01T14:49:55;3.50;;;3.40;;
5878;SDS011;2965;42.640;23.370;2022-08-01T14:52:20;3.47;;;3.37;;
5878;SDS011;2965;42.640;23.370;2022-08-01T15:03:22;3.83;;;3.73;;
5878;SDS011;2965;42.640;23.370;2022-08-01T15:05:48;3.80;;;3.70;;
5878;SDS011;2965;42.640;23.370;2022-08-01T15:08:17;3.90;;;3.70;;
5878;SDS011;2965;42.640;23.370;2022-08-01T15:10:42;3.87;;;3.50;;
5878;SDS011;2965;42.640;23.370;2022-08-01T15:13:08;9.87;;;4.00;;
5878;SDS011;2965;42.640;23.370;2022-08-01T15:15:34;3.60;;;3.50;;
5878;SDS011;2965;42.640;23.370;2022-08-01T15:17:59;3.50;;;3.30;;
5878;SDS011;2965;42.640;23.370;2022-08-01T15:20:27;4.30;;;3.83;;
5878;SDS011;2965;42.640;23.370;2022-08-01T15:22:53;3.90;;;3.80;;
5878;SDS011;2965;42.640;23.370;2022-08-01T15:25:20;3.83;;;3.63;;
5878;SDS011;2965;42.640;23.370;2022-08-01T15:27:46;5.07;;;4.43;;
5878;SDS011;2965;42.640;23.370;2022-08-01T15:30:15;4.13;;;3.93;;
5878;SDS011;2965;42.640;23.370;2022-08-01T15:32:40;4.43;;;4.33;;
5878;SDS011;2965;42.640;23.370;2022-08-01T15:35:06;4.07;;;3.97;;
5878;SDS011;2965;42.640;23.370;2022-08-01T15:37:35;3.70;;;3.40;;
5878;SDS011;2965;42.640;23.370;2022-08-01T15:40:00;3.70;;;3.50;;
5878;SDS011;2965;42.640;23.370;2022-08-01T15:42:26;3.77;;;3.63;;
5878;SDS011;2965;42.640;23.370;2022-08-01T15:44:53;3.40;;;3.20;;
5878;SDS011;2965;42.640;23.370;2022-08-01T15:47:19;4.60;;;3.80;;
5878;SDS011;2965;42.640;23.370;2022-08-01T15:49:46;4.20;;;4.00;;
5878;SDS011;2965;42.640;23.370;2022-08-01T15:52:11;3.67;;;3.57;;
5878;SDS011;2965;42.640;23.370;2022-08-01T15:54:37;4.10;;;4.00;;
5878;SDS011;2965;42.640;23.370;2022-08-01T15:57:06;3.63;;;3.53;;
5878;SDS011;2965;42.640;23.370;2022-08-01T15:59:33;3.70;;;3.60;;
5878;SDS011;2965;42.640;23.370;2022-08-01T16:01:59;3.50;;;3.40;;
5878;SDS011;2965;42.640;23.370;2022-08-01T16:04:27;3.57;;;3.37;;
5878;SDS011;2965;42.640;23.370;2022-08-01T16:06:52;6.90;;;3.20;;
5878;SDS011;2965;42.640;23.370;2022-08-01T16:09:18;3.77;;;3.50;;
5878;SDS011;2965;42.640;23.370;2022-08-01T16:11:44;2.90;;;2.80;;
5878;SDS011;2965;42.640;23.370;2022-08-01T16:14:09;3.83;;;3.50;;
5878;SDS011;2965;42.640;23.370;2022-08-01T16:16:38;5.63;;;3.03;;
5878;SDS011;2965;42.640;23.370;2022-08-01T16:19:04;3.37;;;3.20;;
5878;SDS011;2965;42.640;23.370;2022-08-01T16:21:31;3.63;;;3.53;;
5878;SDS011;2965;42.640;23.370;2022-08-01T16:23:57;8.00;;;3.47;;
5878;SDS011;2965;42.640;23.370;2022-08-01T16:26:24;3.13;;;3.03;;
5878;SDS011;2965;42.640;23.370;2022-08-01T16:28:50;3.70;;;3.60;;
5878;SDS011;2965;42.640;23.370;2022-08-01T16:31:20;3.60;;;3.30;;
5878;SDS011;2965;42.640;23.370;2022-08-01T16:33:45;3.60;;;3.50;;
5878;SDS011;2965;42.640;23.370;2022-08-01T16:36:12;3.47;;;3.37;;
5878;SDS011;2965;42.640;23.370;2022-08-01T16:38:38;3.30;;;3.10;;
5878;SDS011;2965;42.640;23.370;2022-08-01T16:41:07;11.57;;;2.87;;
5878;SDS011;2965;42.640;23.370;2022-08-01T16:43:33;3.47;;;3.37;;
5878;SDS011;2965;42.640;23.370;2022-08-01T16:45:59;3.30;;;3.00;;
5878;SDS011;2965;42.640;23.370;2022-08-01T16:48:25;3.93;;;2.93;;
5878;SDS011;2965;42.640;23.370;2022-08-01T16:50:51;2.60;;;2.50;;
5878;SDS011;2965;42.640;23.370;2022-08-01T16:53:17;3.40;;;3.30;;
5878;SDS011;2965;42.640;23.370;2022-08-01T16:55:44;7.23;;;3.20;;
5878;SDS011;2965;42.640;23.370;2022-08-01T16:58:13;2.80;;;2.70;;
5878;SDS011;2965;42.640;23.370;2022-08-01T17:00:39;3.10;;;3.00;;
5878;SDS011;2965;42.640;23.370;2022-08-01T17:03:07;2.63;;;2.53;;
5878;SDS011;2965;42.640;23.370;2022-08-01T17:05:36;2.63;;;2.53;;
5878;SDS011;2965;42.640;23.370;2022-08-01T17:08:02;3.40;;;3.20;;
5878;SDS011;2965;42.640;23.370;2022-08-01T17:10:29;3.03;;;2.83;;
5878;SDS011;2965;42.640;23.370;2022-08-01T17:12:55;2.80;;;2.70;;
5878;SDS011;2965;42.640;23.370;2022-08-01T17:15:20;3.53;;;3.40;;
5878;SDS011;2965;42.640;23.370;2022-08-01T17:17:46;3.13;;;3.03;;
5878;SDS011;2965;42.640;23.370;2022-08-01T17:20:11;3.33;;;3.10;;
5878;SDS011;2965;42.640;23.370;2022-08-01T17:22:37;2.87;;;2.67;;
5878;SDS011;2965;42.640;23.370;2022-08-01T17:25:02;3.00;;;2.90;;
5878;SDS011;2965;42.640;23.370;2022-08-01T17:27:28;2.27;;;2.17;;
5878;SDS011;2965;42.640;23.370;2022-08-01T17:29:54;3.17;;;2.37;;
5878;SDS011;2965;42.640;23.370;2022-08-01T17:32:20;2.67;;;2.57;;
5878;SDS011;2965;42.640;23.370;2022-08-01T17:34:45;3.87;;;2.70;;
5878;SDS011;2965;42.640;23.370;2022-08-01T17:37:11;3.43;;;3.23;;
5878;SDS011;2965;42.640;23.370;2022-08-01T17:39:36;2.30;;;2.20;;
5878;SDS011;2965;42.640;23.370;2022-08-01T17:42:02;2.63;;;2.53;;
5878;SDS011;2965;42.640;23.370;2022-08-01T17:44:27;2.83;;;2.63;;
5878;SDS011;2965;42.640;23.370;2022-08-01T17:46:53;2.50;;;2.40;;
5878;SDS011;2965;42.640;23.370;2022-08-01T17:49:18;2.93;;;2.73;;
5878;SDS011;2965;42.640;23.370;2022-08-01T17:51:46;3.53;;;3.23;;
5878;SDS011;2965;42.640;23.370;2022-08-01T17:54:11;4.33;;;2.70;;
5878;SDS011;2965;42.640;23.370;2022-08-01T17:56:37;3.07;;;2.87;;
5878;SDS011;2965;42.640;23.370;2022-08-01T17:59:02;4.80;;;3.13;;
5878;SDS011;2965;42.640;23.370;2022-08-01T18:01:28;2.60;;;2.50;;
5878;SDS011;2965;42.640;23.370;2022-08-01T18:03:54;4.17;;;2.90;;
5878;SDS011;2965;42.640;23.370;2022-08-01T18:06:20;3.13;;;3.03;;
5878;SDS011;2965;42.640;23.370;2022-08-01T18:08:47;2.93;;;2.83;;
5878;SDS011;2965;42.640;23.370;2022-08-01T18:11:22;2.77;;;2.67;;
5878;SDS011;2965;42.640;23.370;2022-08-01T18:14:09;4.80;;;4.50;;
5878;SDS011;2965;42.640;23.370;2022-08-01T18:17:09;3.30;;;3.10;;
5878;SDS011;2965;42.640;23.370;2022-08-01T18:19:35;3.10;;;3.00;;
5878;SDS011;2965;42.640;23.370;2022-08-01T18:22:02;2.80;;;2.67;;
5878;SDS011;2965;42.640;23.370;2022-08-01T18:24:30;3.03;;;2.93;;
5878;SDS011;2965;42.640;23.370;2022-08-01T18:26:56;3.67;;;3.57;;
5878;SDS011;2965;42.640;23.370;2022-08-01T18:29:23;4.37;;;4.13;;
5878;SDS011;2965;42.640;23.370;2022-08-01T18:32:06;3.83;;;3.63;;
5878;SDS011;2965;42.640;23.370;2022-08-01T18:34:36;3.73;;;3.53;;
5878;SDS011;2965;42.640;23.370;2022-08-01T18:37:10;3.37;;;3.27;;
5878;SDS011;2965;42.640;23.370;2022-08-01T18:39:44;3.33;;;3.13;;
5878;SDS011;2965;42.640;23.370;2022-08-01T18:42:30;3.03;;;2.93;;
5878;SDS011;2965;42.640;23.370;2022-08-01T18:45:06;2.90;;;2.70;;
5878;SDS011;2965;42.640;23.370;2022-08-01T18:47:32;3.13;;;3.03;;
5878;SDS011;2965;42.640;23.370;2022-08-01T18:49:57;3.93;;;3.73;;
5878;SDS011;2965;42.640;23.370;2022-08-01T18:52:23;3.80;;;3.60;;
5878;SDS011;2965;42.640;23.370;2022-08-01T18:54:50;3.43;;;3.23;;
5878;SDS011;2965;42.640;23.370;2022-08-01T18:57:16;6.20;;;3.20;;
5878;SDS011;2965;42.640;23.370;2022-08-01T18:59:41;3.30;;;3.20;;
5878;SDS011;2965;42.640;23.370;2022-08-01T19:02:08;4.17;;;3.17;;
5878;SDS011;2965;42.640;23.370;2022-08-01T19:05:15;3.17;;;3.03;;
5878;SDS011;2965;42.640;23.370;2022-08-01T19:07:56;3.37;;;3.27;;
5878;SDS011;2965;42.640;23.370;2022-08-01T19:10:50;4.07;;;3.40;;
5878;SDS011;2965;42.640;23.370;2022-08-01T19:13:32;21.40;;;5.70;;
5878;SDS011;2965;42.640;23.370;2022-08-01T19:15:58;4.50;;;2.80;;
5878;SDS011;2965;42.640;23.370;2022-08-01T19:18:24;3.97;;;3.60;;
5878;SDS011;2965;42.640;23.370;2022-08-01T19:20:51;3.63;;;3.47;;
5878;SDS011;2965;42.640;23.370;2022-08-01T19:23:17;4.10;;;4.00;;
5878;SDS011;2965;42.640;23.370;2022-08-01T19:26:01;4.17;;;3.40;;
5878;SDS011;2965;42.640;23.370;2022-08-01T19:28:30;4.30;;;4.10;;
5878;SDS011;2965;42.640;23.370;2022-08-01T19:31:04;3.77;;;3.57;;
5878;SDS011;2965;42.640;23.370;2022-08-01T19:33:33;3.80;;;3.70;;
5878;SDS011;2965;42.640;23.370;2022-08-01T19:36:02;4.27;;;4.07;;
5878;SDS011;2965;42.640;23.370;2022-08-01T19:38:29;4.07;;;3.70;;
5878;SDS011;2965;42.640;23.370;2022-08-01T19:40:56;3.63;;;3.53;;
5878;SDS011;2965;42.640;23.370;2022-08-01T19:43:22;4.00;;;3.67;;
5878;SDS011;2965;42.640;23.370;2022-08-01T19:45:49;3.40;;;3.30;;
5878;SDS011;2965;42.640;23.370;2022-08-01T19:48:16;4.60;;;4.40;;
5878;SDS011;2965;42.640;23.370;2022-08-01T19:50:42;6.30;;;4.30;;
5878;SDS011;2965;42.640;23.370;2022-08-01T19:53:10;4.33;;;4.03;;
5878;SDS011;2965;42.640;23.370;2022-08-01T19:55:38;11.73;;;7.30;;
5878;SDS011;2965;42.640;23.370;2022-08-01T19:58:10;4.73;;;4.50;;
5878;SDS011;2965;42.640;23.370;2022-08-01T20:00:39;4.23;;;4.00;;
5878;SDS011;2965;42.640;23.370;2022-08-01T20:03:07;4.13;;;3.90;;
5878;SDS011;2965;42.640;23.370;2022-08-01T20:05:35;4.30;;;4.00;;
5878;SDS011;2965;42.640;23.370;2022-08-01T20:08:02;3.83;;;3.63;;
5878;SDS011;2965;42.640;23.370;2022-08-01T20:10:30;3.83;;;3.73;;
5878;SDS011;2965;42.640;23.370;2022-08-01T20:12:57;3.73;;;3.60;;
5878;SDS011;2965;42.640;23.370;2022-08-01T20:15:23;2.97;;;2.87;;
5878;SDS011;2965;42.640;23.370;2022-08-01T20:17:55;3.90;;;3.70;;
5878;SDS011;2965;42.640;23.370;2022-08-01T20:20:24;4.37;;;3.97;;
5878;SDS011;2965;42.640;23.370;2022-08-01T20:22:49;3.83;;;3.70;;
5878;SDS011;2965;42.640;23.370;2022-08-01T20:25:19;3.83;;;3.73;;
5878;SDS011;2965;42.640;23.370;2022-08-01T20:27:48;3.40;;;3.20;;
5878;SDS011;2965;42.640;23.370;2022-08-01T20:30:16;8.73;;;4.07;;
5878;SDS011;2965;42.640;23.370;2022-08-01T20:32:45;3.70;;;3.60;;
5878;SDS011;2965;42.640;23.370;2022-08-01T20:35:18;5.90;;;3.83;;
5878;SDS011;2965;42.640;23.370;2022-08-01T20:37:44;4.17;;;3.87;;
5878;SDS011;2965;42.640;23.370;2022-08-01T20:40:13;5.53;;;4.03;;
5878;SDS011;2965;42.640;23.370;2022-08-01T20:42:47;3.23;;;3.03;;
5878;SDS011;2965;42.640;23.370;2022-08-01T20:45:14;3.90;;;3.60;;
5878;SDS011;2965;42.640;23.370;2022-08-01T20:47:43;3.73;;;3.43;;
5878;SDS011;2965;42.640;23.370;2022-08-01T20:50:11;3.80;;;3.50;;
5878;SDS011;2965;42.640;23.370;2022-08-01T20:52:55;4.03;;;3.83;;
5878;SDS011;2965;42.640;23.370;2022-08-01T20:55:25;3.33;;;3.23;;
5878;SDS011;2965;42.640;23.370;2022-08-01T21:03:35;2.60;;;2.50;;
5878;SDS011;2965;42.640;23.370;2022-08-01T21:06:30;3.23;;;2.83;;
5878;SDS011;2965;42.640;23.370;2022-08-01T21:09:05;3.33;;;3.10;;
5878;SDS011;2965;42.640;23.370;2022-08-01T21:14:34;2.93;;;2.83;;
5878;SDS011;2965;42.640;23.370;2022-08-01T21:17:27;5.87;;;3.60;;
5878;SDS011;2965;42.640;23.370;2022-08-01T21:20:03;3.33;;;3.17;;
5878;SDS011;2965;42.640;23.370;2022-08-01T21:22:35;10.93;;;4.50;;
5878;SDS011;2965;42.640;23.370;2022-08-01T21:25:06;3.73;;;3.40;;
5878;SDS011;2965;42.640;23.370;2022-08-01T21:27:36;3.80;;;3.70;;
5878;SDS011;2965;42.640;23.370;2022-08-01T21:30:04;3.60;;;3.30;;
5878;SDS011;2965;42.640;23.370;2022-08-01T21:32:32;3.47;;;3.27;;
5878;SDS011;2965;42.640;23.370;2022-08-01T21:35:02;3.17;;;2.80;;
5878;SDS011;2965;42.640;23.370;2022-08-01T21:37:44;3.00;;;2.80;;
5878;SDS011;2965;42.640;23.370;2022-08-01T21:40:17;2.50;;;2.40;;
5878;SDS011;2965;42.640;23.370;2022-08-01T21:42:49;3.30;;;3.20;;
5878;SDS011;2965;42.640;23.370;2022-08-01T21:45:22;3.00;;;2.87;;
5878;SDS011;2965;42.640;23.370;2022-08-01T21:47:51;4.93;;;2.50;;
5878;SDS011;2965;42.640;23.370;2022-08-01T21:50:21;2.87;;;2.77;;
5878;SDS011;2965;42.640;23.370;2022-08-01T21:53:09;9.33;;;3.03;;
5878;SDS011;2965;42.640;23.370;2022-08-01T21:58:33;3.70;;;3.40;;
5878;SDS011;2965;42.640;23.370;2022-08-01T22:01:08;4.33;;;2.80;;
5878;SDS011;2965;42.640;23.370;2022-08-01T22:03:46;2.73;;;2.63;;
5878;SDS011;2965;42.640;23.370;2022-08-01T22:06:16;4.03;;;2.53;;
5878;SDS011;2965;42.640;23.370;2022-08-01T22:08:51;2.30;;;2.20;;
5878;SDS011;2965;42.640;23.370;2022-08-01T22:11:20;4.83;;;4.63;;
5878;SDS011;2965;42.640;23.370;2022-08-01T22:13:53;3.27;;;3.07;;
5878;SDS011;2965;42.640;23.370;2022-08-01T22:16:26;3.13;;;3.03;;
5878;SDS011;2965;42.640;23.370;2022-08-01T22:18:56;2.40;;;2.30;;
5878;SDS011;2965;42.640;23.370;2022-08-01T22:21:25;2.67;;;2.47;;
5878;SDS011;2965;42.640;23.370;2022-08-01T22:23:51;3.17;;;2.47;;
5878;SDS011;2965;42.640;23.370;2022-08-01T22:26:17;2.53;;;2.30;;
5878;SDS011;2965;42.640;23.370;2022-08-01T22:28:45;2.20;;;2.10;;
5878;SDS011;2965;42.640;23.370;2022-08-01T22:31:19;2.30;;;2.20;;
5878;SDS011;2965;42.640;23.370;2022-08-01T22:33:55;2.07;;;1.97;;
5878;SDS011;2965;42.640;23.370;2022-08-01T22:36:21;2.20;;;2.10;;
5878;SDS011;2965;42.640;23.370;2022-08-01T22:38:48;2.23;;;2.13;;